createdAt,value
2022-12-04T00:00:27.851Z,33.40
2022-12-04T00:02:54.551Z,33.53
2022-12-04T00:05:21.832Z,33.70
2022-12-04T00:07:48.629Z,33.10
2022-12-04T00:10:16.101Z,33.92
2022-12-04T00:12:42.695Z,33.92
2022-12-04T00:15:26.633Z,32.92
2022-12-04T00:17:54.579Z,35.40
2022-12-04T00:20:23.200Z,34.63
2022-12-04T00:22:49.916Z,35.20
2022-12-04T00:25:17.264Z,35.65
2022-12-04T00:27:43.870Z,33.33
2022-12-04T00:30:11.830Z,33.05
2022-12-04T00:32:38.417Z,33.85
2022-12-04T00:35:06.147Z,34.33
2022-12-04T00:37:33.279Z,33.63
2022-12-04T00:40:00.555Z,35.15
2022-12-04T00:42:27.218Z,33.60
2022-12-04T00:44:54.433Z,33.50
2022-12-04T00:47:21.146Z,33.95
2022-12-04T00:49:48.455Z,34.72
2022-12-04T00:52:15.038Z,35.50
2022-12-04T00:54:42.559Z,34.63
2022-12-04T00:57:09.363Z,32.53
2022-12-04T00:59:38.499Z,33.58
2022-12-04T01:02:05.594Z,34.17
2022-12-04T01:04:32.225Z,34.92
2022-12-04T01:07:04.604Z,33.63
2022-12-04T01:09:32.855Z,33.88
2022-12-04T01:11:59.575Z,34.58
2022-12-04T01:14:26.886Z,32.97
2022-12-04T01:16:53.624Z,34.70
2022-12-04T01:19:20.991Z,34.92
2022-12-04T01:21:47.748Z,33.92
2022-12-04T01:24:15.107Z,33.05
2022-12-04T01:26:41.703Z,33.17
2022-12-04T01:29:08.963Z,34.65
2022-12-04T01:31:35.623Z,33.67
2022-12-04T01:34:02.965Z,33.75
2022-12-04T01:36:29.731Z,34.03
2022-12-04T01:38:57.084Z,35.85
2022-12-04T01:41:28.069Z,33.13
2022-12-04T01:44:23.216Z,35.67
2022-12-04T01:46:55.233Z,33.83
2022-12-04T01:49:45.606Z,34.45
2022-12-04T01:52:18.925Z,34.47
2022-12-04T01:54:50.336Z,32.70
2022-12-04T01:57:20.457Z,35.72
2022-12-04T01:59:54.427Z,35.47
2022-12-04T02:02:27.747Z,35.85
2022-12-04T02:07:21.777Z,32.40
2022-12-04T02:09:53.914Z,32.42
2022-12-04T02:12:46.201Z,36.55
2022-12-04T02:15:28.665Z,34.13
2022-12-04T02:18:02.965Z,32.60
2022-12-04T02:20:44.573Z,34.60
2022-12-04T02:23:45.194Z,34.63
2022-12-04T02:26:28.190Z,34.95
2022-12-04T02:29:09.842Z,34.47
2022-12-04T02:32:06.205Z,33.17
2022-12-04T02:35:06.174Z,33.60
2022-12-04T02:37:45.842Z,34.35
2022-12-04T02:40:17.421Z,34.22
2022-12-04T02:42:53.682Z,36.43
2022-12-04T02:45:26.155Z,35.60
2022-12-04T02:50:22.468Z,32.20
2022-12-04T02:53:13.664Z,35.17
2022-12-04T02:55:44.926Z,33.70
2022-12-04T02:58:25.747Z,35.17
2022-12-04T03:00:54.472Z,35.03
2022-12-04T03:03:26.719Z,35.28
2022-12-04T03:06:05.031Z,35.60
2022-12-04T03:08:45.096Z,33.63
2022-12-04T03:11:11.824Z,35.72
2022-12-04T03:13:51.436Z,34.88
2022-12-04T03:16:27.205Z,35.97
2022-12-04T03:19:08.979Z,35.45
2022-12-04T03:21:40.623Z,34.70
2022-12-04T03:24:13.812Z,33.13
2022-12-04T03:29:23.660Z,35.25
2022-12-04T03:32:13.365Z,35.22
2022-12-04T03:34:46.385Z,34.70
2022-12-04T03:37:18.356Z,33.90
2022-12-04T03:40:25.701Z,33.05
2022-12-04T03:43:03.981Z,35.08
2022-12-04T03:45:37.227Z,36.70
2022-12-04T03:50:52.339Z,34.33
2022-12-04T03:53:24.335Z,36.05
2022-12-04T03:56:29.119Z,34.42
2022-12-04T03:59:00.105Z,35.83
2022-12-04T04:01:38.383Z,34.22
2022-12-04T04:04:10.058Z,33.85
2022-12-04T04:06:42.407Z,32.87
2022-12-04T04:09:17.371Z,34.58
2022-12-04T04:11:57.131Z,33.75
2022-12-04T04:15:09.846Z,33.05
2022-12-04T04:18:00.515Z,35.55
2022-12-04T04:20:55.024Z,33.72
2022-12-04T04:23:41.799Z,33.28
2022-12-04T04:26:11.483Z,36.15
2022-12-04T04:28:40.267Z,35.40
2022-12-04T04:31:38.673Z,33.55
2022-12-04T04:34:27.769Z,35.08
2022-12-04T04:37:01.191Z,32.63
2022-12-04T04:39:34.993Z,35.03
2022-12-04T04:42:14.059Z,35.25
2022-12-04T04:45:05.404Z,34.45
2022-12-04T04:47:41.516Z,33.60
2022-12-04T04:50:11.609Z,33.83
2022-12-04T04:52:42.358Z,34.28
2022-12-04T04:55:10.788Z,33.40
2022-12-04T04:57:37.554Z,33.97
2022-12-04T05:00:11.653Z,33.22
2022-12-04T05:02:38.622Z,32.28
2022-12-04T05:05:06.917Z,33.03
2022-12-04T05:07:33.766Z,34.08
2022-12-04T05:10:01.150Z,33.40
2022-12-04T05:12:27.768Z,32.33
2022-12-04T05:14:55.060Z,34.08
2022-12-04T05:17:21.675Z,34.72
2022-12-04T05:19:55.683Z,34.58
2022-12-04T05:22:42.844Z,33.53
2022-12-04T05:25:10.558Z,32.83
2022-12-04T05:27:37.398Z,35.13
2022-12-04T05:30:05.579Z,31.83
2022-12-04T05:32:32.157Z,34.03
2022-12-04T05:34:59.722Z,31.42
2022-12-04T05:37:26.443Z,29.20
2022-12-04T05:39:54.387Z,28.92
2022-12-04T05:42:21.696Z,27.40
2022-12-04T05:44:50.304Z,28.05
2022-12-04T05:47:17.200Z,27.08
2022-12-04T05:49:45.225Z,27.17
2022-12-04T05:52:12.441Z,26.70
2022-12-04T05:54:40.454Z,25.30
2022-12-04T05:57:07.476Z,24.13
2022-12-04T05:59:34.952Z,25.83
2022-12-04T06:02:01.603Z,24.00
2022-12-04T06:04:28.994Z,23.95
2022-12-04T06:06:55.648Z,24.83
2022-12-04T06:09:22.628Z,24.13
2022-12-04T06:11:49.292Z,25.13
2022-12-04T06:14:16.865Z,24.33
2022-12-04T06:16:45.693Z,22.92
2022-12-04T06:19:18.581Z,24.25
2022-12-04T06:21:47.025Z,23.33
2022-12-04T06:24:17.809Z,23.08
2022-12-04T06:27:10.981Z,22.63
2022-12-04T06:29:32.887Z,23.80
2022-12-04T06:31:59.646Z,21.85
2022-12-04T06:34:27.039Z,21.98
2022-12-04T06:36:53.708Z,22.73
2022-12-04T06:39:21.092Z,23.67
2022-12-04T06:41:47.878Z,22.25
2022-12-04T06:44:15.941Z,23.48
2022-12-04T06:46:46.873Z,23.00
2022-12-04T06:49:14.014Z,22.80
2022-12-04T06:51:41.571Z,22.05
2022-12-04T06:54:10.120Z,25.48
2022-12-04T06:56:37.446Z,23.75
2022-12-04T06:59:05.563Z,25.20
2022-12-04T07:01:34.631Z,24.83
2022-12-04T07:04:03.811Z,25.63
2022-12-04T07:06:33.780Z,24.35
2022-12-04T07:09:05.190Z,24.25
2022-12-04T07:11:33.509Z,25.77
2022-12-04T07:14:00.229Z,27.00
2022-12-04T07:16:29.383Z,23.48
2022-12-04T07:18:59.071Z,26.27
2022-12-04T07:21:30.163Z,25.25
2022-12-04T07:23:59.556Z,25.17
2022-12-04T07:26:27.473Z,25.33
2022-12-04T07:28:55.808Z,24.73
2022-12-04T07:31:24.358Z,25.52
2022-12-04T07:33:53.726Z,24.65
2022-12-04T07:36:22.843Z,24.05
2022-12-04T07:38:49.844Z,23.80
2022-12-04T07:41:17.853Z,23.15
2022-12-04T07:43:44.604Z,22.15
2022-12-04T07:46:18.914Z,23.50
2022-12-04T07:48:45.945Z,22.88
2022-12-04T07:51:19.632Z,23.13
2022-12-04T07:53:46.906Z,23.25
2022-12-04T07:56:14.746Z,23.23
2022-12-04T07:58:42.257Z,23.27
2022-12-04T08:01:18.635Z,23.02
2022-12-04T08:03:48.797Z,25.25
2022-12-04T08:06:18.703Z,23.10
2022-12-04T08:08:47.087Z,22.85
2022-12-04T08:11:16.791Z,23.23
2022-12-04T08:13:44.171Z,23.13
2022-12-04T08:16:12.567Z,24.23
2022-12-04T08:18:40.185Z,22.08
2022-12-04T08:21:14.122Z,23.73
2022-12-04T08:23:43.379Z,21.92
2022-12-04T08:26:11.256Z,20.77
2022-12-04T08:28:39.278Z,21.50
2022-12-04T08:31:08.605Z,21.55
2022-12-04T08:33:35.293Z,22.50
2022-12-04T08:36:05.629Z,22.55
2022-12-04T08:38:32.220Z,20.38
2022-12-04T08:41:04.743Z,22.23
2022-12-04T08:43:31.496Z,20.92
2022-12-04T08:46:01.274Z,19.40
2022-12-04T08:48:28.830Z,19.27
2022-12-04T08:50:56.120Z,17.15
2022-12-04T08:53:23.499Z,18.23
2022-12-04T08:55:51.799Z,18.20
2022-12-04T08:58:19.952Z,17.95
2022-12-04T09:00:47.880Z,18.23
2022-12-04T09:03:19.402Z,17.20
2022-12-04T09:05:47.064Z,19.77
2022-12-04T09:08:15.317Z,17.73
2022-12-04T09:10:43.563Z,16.73
2022-12-04T09:13:10.322Z,15.18
2022-12-04T09:15:41.081Z,16.15
2022-12-04T09:18:08.566Z,16.92
2022-12-04T09:20:36.579Z,15.75
2022-12-04T09:23:05.446Z,17.52
2022-12-04T09:25:37.357Z,16.30
2022-12-04T09:28:04.898Z,15.82
2022-12-04T09:30:32.234Z,16.70
2022-12-04T09:32:58.841Z,18.00
2022-12-04T09:35:26.205Z,17.45
2022-12-04T09:37:52.811Z,15.98
2022-12-04T09:40:54.314Z,15.55
2022-12-04T09:43:39.843Z,17.00
2022-12-04T09:46:11.877Z,16.63
2022-12-04T09:48:43.213Z,18.02
2022-12-04T09:51:18.374Z,15.98
2022-12-04T09:53:51.412Z,17.27
2022-12-04T09:56:19.798Z,16.25
2022-12-04T09:58:55.500Z,15.85
2022-12-04T10:01:29.950Z,16.00
2022-12-04T10:04:01.184Z,16.40
2022-12-04T10:06:44.046Z,18.73
2022-12-04T10:09:30.180Z,17.95
2022-12-04T10:12:00.951Z,19.13
2022-12-04T10:14:55.198Z,18.45
2022-12-04T10:17:34.279Z,17.38
2022-12-04T10:20:29.620Z,16.00
2022-12-04T10:22:58.980Z,16.25
2022-12-04T10:25:29.036Z,16.58
2022-12-04T10:28:13.707Z,15.35
2022-12-04T10:30:43.465Z,15.95
2022-12-04T10:33:38.067Z,16.25
2022-12-04T10:36:05.877Z,15.40
2022-12-04T10:38:53.551Z,15.60
2022-12-04T10:41:45.173Z,17.02
2022-12-04T10:44:17.214Z,15.73
2022-12-04T10:46:46.292Z,15.63
2022-12-04T10:49:21.661Z,15.52
2022-12-04T10:51:49.003Z,14.48
2022-12-04T10:54:35.310Z,15.45
2022-12-04T10:57:08.399Z,15.60
2022-12-04T10:59:35.434Z,17.30
2022-12-04T11:02:23.356Z,18.38
2022-12-04T11:04:56.238Z,17.42
2022-12-04T11:07:45.237Z,17.80
2022-12-04T11:10:29.564Z,18.63
2022-12-04T11:12:58.515Z,19.17
2022-12-04T11:15:25.930Z,21.23
2022-12-04T11:17:52.843Z,16.95
2022-12-04T11:20:25.097Z,20.50
2022-12-04T11:22:59.280Z,20.25
2022-12-04T11:25:28.643Z,24.70
2022-12-04T11:27:58.887Z,19.35
2022-12-04T11:30:31.038Z,18.13
2022-12-04T11:32:58.195Z,14.48
2022-12-04T11:35:28.749Z,18.42
2022-12-04T11:38:21.932Z,18.02
2022-12-04T11:40:52.399Z,17.70
2022-12-04T11:43:19.616Z,22.60
2022-12-04T11:46:03.273Z,20.13
2022-12-04T11:48:43.236Z,20.65
2022-12-04T11:51:28.937Z,18.73
2022-12-04T11:54:10.040Z,20.25
2022-12-04T11:56:42.989Z,20.08
2022-12-04T11:59:18.889Z,20.33
2022-12-04T12:02:23.911Z,20.23
2022-12-04T12:05:12.504Z,19.42
2022-12-04T12:08:02.470Z,19.90
2022-12-04T12:10:49.175Z,19.80
2022-12-04T12:13:34.730Z,18.05
2022-12-04T12:16:26.874Z,19.50
2022-12-04T12:19:14.909Z,20.50
2022-12-04T12:22:05.171Z,19.98
2022-12-04T12:24:53.714Z,20.38
2022-12-04T12:27:39.646Z,20.70
2022-12-04T12:30:16.668Z,21.02
2022-12-04T12:33:04.503Z,22.38
2022-12-04T12:35:58.783Z,21.38
2022-12-04T12:38:37.474Z,22.70
2022-12-04T12:41:19.721Z,21.08
2022-12-04T12:43:59.913Z,21.50
2022-12-04T12:47:00.726Z,18.67
2022-12-04T12:49:39.729Z,19.08
2022-12-04T12:52:23.485Z,22.90
2022-12-04T12:55:00.463Z,18.80
2022-12-04T12:57:39.581Z,19.23
2022-12-04T13:00:13.024Z,20.17
2022-12-04T13:02:58.999Z,21.17
2022-12-04T13:05:31.695Z,21.25
2022-12-04T13:08:15.316Z,19.70
2022-12-04T13:11:04.355Z,19.55
2022-12-04T13:13:35.675Z,19.83
2022-12-04T13:16:18.688Z,20.33
2022-12-04T13:18:56.214Z,20.75
2022-12-04T13:21:25.535Z,20.13
2022-12-04T13:24:00.988Z,21.08
2022-12-04T13:26:53.265Z,26.25
2022-12-04T13:29:28.852Z,23.65
2022-12-04T13:32:04.745Z,19.73
2022-12-04T13:35:14.405Z,19.55
2022-12-04T13:38:01.254Z,21.15
2022-12-04T13:40:33.852Z,22.67
2022-12-04T13:43:36.989Z,20.55
2022-12-04T13:46:23.092Z,19.33
2022-12-04T13:48:49.769Z,18.08
2022-12-04T13:51:41.283Z,18.90
2022-12-04T13:54:10.941Z,20.60
2022-12-04T13:56:43.410Z,19.35
2022-12-04T13:59:28.307Z,18.58
2022-12-04T14:02:02.381Z,18.52
2022-12-04T14:04:44.108Z,20.23
2022-12-04T14:07:26.789Z,19.23
2022-12-04T14:09:55.916Z,19.70
2022-12-04T14:12:30.093Z,20.30
2022-12-04T14:15:00.558Z,18.25
2022-12-04T14:17:36.470Z,18.48
2022-12-04T14:20:08.425Z,19.50
2022-12-04T14:22:35.391Z,19.83
2022-12-04T14:25:38.486Z,18.65
2022-12-04T14:28:27.722Z,19.70
2022-12-04T14:31:23.282Z,18.75
2022-12-04T14:33:54.991Z,19.20
2022-12-04T14:36:28.875Z,20.17
2022-12-04T14:39:04.055Z,19.70
2022-12-04T14:41:32.115Z,19.92
2022-12-04T14:43:59.044Z,19.77
2022-12-04T14:46:36.942Z,24.45
2022-12-04T14:49:18.370Z,29.15
2022-12-04T14:51:49.399Z,35.90
2022-12-04T14:54:28.453Z,30.33
2022-12-04T14:57:04.619Z,27.40
2022-12-04T14:59:45.291Z,22.33
2022-12-04T15:02:17.252Z,33.83
2022-12-04T15:04:46.189Z,22.73
2022-12-04T15:07:29.380Z,21.95
2022-12-04T15:10:17.284Z,21.02
2022-12-04T15:12:53.353Z,22.33
2022-12-04T15:15:27.386Z,22.48
2022-12-04T15:18:04.385Z,20.85
2022-12-04T15:20:39.226Z,19.83
2022-12-04T15:23:06.463Z,21.48
2022-12-04T15:26:11.734Z,23.15
2022-12-04T15:28:48.650Z,21.90
2022-12-04T15:31:20.051Z,23.33
2022-12-04T15:33:50.323Z,23.60
2022-12-04T15:36:35.503Z,23.17
2022-12-04T15:39:02.770Z,25.67
2022-12-04T15:41:35.678Z,24.65
2022-12-04T15:44:21.887Z,25.30
2022-12-04T15:46:48.886Z,27.15
2022-12-04T15:49:27.934Z,26.85
2022-12-04T15:52:10.100Z,29.02
2022-12-04T15:54:41.329Z,27.17
2022-12-04T15:57:27.765Z,26.02
2022-12-04T15:59:55.540Z,24.83
2022-12-04T16:02:29.906Z,26.23
2022-12-04T16:04:57.302Z,24.77
2022-12-04T16:07:29.803Z,25.40
2022-12-04T16:10:03.661Z,26.27
2022-12-04T16:12:33.070Z,28.40
2022-12-04T16:14:59.744Z,27.60
2022-12-04T16:17:32.397Z,25.05
2022-12-04T16:19:59.582Z,33.53
2022-12-04T16:22:27.162Z,31.13
2022-12-04T16:24:54.458Z,27.80
2022-12-04T16:27:24.294Z,26.33
2022-12-04T16:29:52.213Z,22.17
2022-12-04T16:32:22.237Z,24.50
2022-12-04T16:34:48.934Z,26.88
2022-12-04T16:37:22.656Z,34.28
2022-12-04T16:39:49.599Z,30.20
2022-12-04T16:42:23.261Z,37.90
2022-12-04T16:44:50.793Z,38.35
2022-12-04T16:47:18.758Z,33.75
2022-12-04T16:49:51.384Z,45.85
2022-12-04T16:54:46.216Z,25.63
2022-12-04T16:57:13.482Z,25.48
2022-12-04T16:59:40.124Z,24.27
2022-12-04T17:02:17.489Z,25.08
2022-12-04T17:04:44.327Z,22.85
2022-12-04T17:07:11.588Z,22.83
2022-12-04T17:09:38.208Z,22.02
2022-12-04T17:12:05.506Z,21.95
2022-12-04T17:14:33.139Z,21.92
2022-12-04T17:16:59.732Z,22.40
2022-12-04T17:19:26.370Z,23.40
2022-12-04T17:21:53.318Z,24.80
2022-12-04T17:24:20.665Z,26.65
2022-12-04T17:26:47.243Z,24.92
2022-12-04T17:29:14.536Z,25.45
2022-12-04T17:31:41.588Z,26.35
2022-12-04T17:34:08.968Z,25.52
2022-12-04T17:36:35.521Z,26.08
2022-12-04T17:39:02.780Z,25.85
2022-12-04T17:41:29.717Z,27.85
2022-12-04T17:43:59.829Z,25.63
2022-12-04T17:46:26.691Z,25.00
2022-12-04T17:48:56.842Z,26.02
2022-12-04T17:51:25.218Z,26.65
2022-12-04T17:53:52.649Z,26.15
2022-12-04T17:56:24.365Z,25.60
2022-12-04T17:58:52.289Z,26.08
2022-12-04T18:01:25.012Z,25.83
2022-12-04T18:03:57.368Z,27.42
2022-12-04T18:06:32.914Z,27.73
2022-12-04T18:09:00.045Z,27.80
2022-12-04T18:11:31.048Z,28.42
2022-12-04T18:14:07.116Z,29.83
2022-12-04T18:16:41.291Z,34.92
2022-12-04T18:19:15.903Z,40.38
2022-12-04T18:21:43.559Z,49.55
2022-12-04T18:24:10.230Z,70.60
2022-12-04T18:26:40.291Z,46.63
2022-12-04T18:29:07.943Z,36.60
2022-12-04T18:31:35.529Z,36.67
2022-12-04T18:34:04.520Z,38.55
2022-12-04T18:36:33.595Z,37.63
2022-12-04T18:39:05.671Z,35.42
2022-12-04T18:41:33.124Z,35.38
2022-12-04T18:44:00.377Z,33.08
2022-12-04T18:46:27.381Z,32.20
2022-12-04T18:48:56.392Z,33.15
2022-12-04T18:51:24.316Z,31.15
2022-12-04T18:53:53.186Z,30.92
2022-12-04T18:56:20.086Z,31.50
2022-12-04T18:58:48.123Z,32.45
2022-12-04T19:01:19.338Z,30.00
2022-12-04T19:03:47.931Z,29.15
2022-12-04T19:06:14.954Z,30.27
2022-12-04T19:08:43.731Z,28.20
2022-12-04T19:11:14.021Z,30.35
2022-12-04T19:13:41.469Z,28.92
2022-12-04T19:16:13.652Z,31.55
2022-12-04T19:18:42.455Z,32.53
2022-12-04T19:21:09.371Z,34.42
2022-12-04T19:23:36.690Z,34.80
2022-12-04T19:26:04.236Z,35.83
2022-12-04T19:28:31.541Z,36.67
2022-12-04T19:30:58.198Z,36.65
2022-12-04T19:33:25.894Z,36.38
2022-12-04T19:36:00.918Z,36.88
2022-12-04T19:38:29.311Z,47.53
2022-12-04T19:41:24.064Z,48.80
2022-12-04T19:43:54.902Z,73.45
2022-12-04T19:46:25.771Z,81.13
2022-12-04T19:48:59.031Z,77.15
2022-12-04T19:51:26.112Z,51.38
2022-12-04T19:53:54.458Z,35.97
2022-12-04T19:56:24.676Z,34.97
2022-12-04T19:58:53.016Z,36.55
2022-12-04T20:01:28.729Z,36.40
2022-12-04T20:03:56.240Z,37.72
2022-12-04T20:06:26.389Z,37.28
2022-12-04T20:09:00.065Z,37.42
2022-12-04T20:11:28.155Z,38.83
2022-12-04T20:13:57.048Z,38.85
2022-12-04T20:16:25.808Z,38.22
2022-12-04T20:18:54.097Z,39.83
2022-12-04T20:21:25.457Z,40.90
2022-12-04T20:23:54.233Z,40.08
2022-12-04T20:26:24.893Z,41.03
2022-12-04T20:28:53.437Z,40.05
2022-12-04T20:31:29.299Z,42.60
2022-12-04T20:33:58.537Z,40.03
2022-12-04T20:36:27.500Z,42.20
2022-12-04T20:38:58.338Z,41.85
2022-12-04T20:41:29.481Z,42.75
2022-12-04T20:44:00.473Z,43.08
2022-12-04T20:46:33.259Z,44.50
2022-12-04T20:49:03.014Z,44.38
2022-12-04T20:51:38.366Z,45.45
2022-12-04T20:54:06.542Z,44.70
2022-12-04T20:56:36.014Z,42.97
2022-12-04T20:59:11.024Z,41.05
2022-12-04T21:01:37.829Z,43.45
2022-12-04T21:04:06.456Z,43.53
2022-12-04T21:06:36.840Z,42.38
2022-12-04T21:09:06.283Z,41.53
2022-12-04T21:11:44.703Z,42.80
2022-12-04T21:14:32.500Z,41.45
2022-12-04T21:17:00.639Z,43.50
2022-12-04T21:19:27.709Z,42.95
2022-12-04T21:21:56.283Z,41.70
2022-12-04T21:24:26.380Z,42.00
2022-12-04T21:26:54.140Z,41.60
2022-12-04T21:29:21.645Z,43.20
2022-12-04T21:31:48.658Z,41.80
2022-12-04T21:34:17.393Z,41.90
2022-12-04T21:36:46.049Z,39.38
2022-12-04T21:39:14.854Z,42.20
2022-12-04T21:42:00.056Z,43.13
2022-12-04T21:44:26.849Z,41.13
2022-12-04T21:46:53.518Z,40.75
2022-12-04T21:49:20.401Z,41.55
2022-12-04T21:52:02.320Z,39.63
2022-12-04T21:54:29.993Z,39.33
2022-12-04T21:56:57.418Z,41.42
2022-12-04T21:59:25.392Z,41.03
2022-12-04T22:01:53.083Z,41.45
2022-12-04T22:04:20.661Z,37.95
2022-12-04T22:06:47.552Z,37.60
2022-12-04T22:09:14.951Z,38.72
2022-12-04T22:11:42.418Z,40.05
2022-12-04T22:14:10.469Z,38.35
2022-12-04T22:16:41.862Z,37.63
2022-12-04T22:19:11.675Z,41.22
2022-12-04T22:21:39.385Z,38.75
2022-12-04T22:24:06.522Z,37.20
2022-12-04T22:26:33.837Z,38.85
2022-12-04T22:29:00.767Z,36.50
2022-12-04T22:31:29.586Z,37.35
2022-12-04T22:33:58.840Z,35.53
2022-12-04T22:36:31.486Z,34.92
2022-12-04T22:39:09.409Z,35.38
2022-12-04T22:41:37.011Z,35.15
2022-12-04T22:44:04.398Z,32.67
2022-12-04T22:46:31.520Z,35.03
2022-12-04T22:48:59.493Z,34.80
2022-12-04T22:51:27.077Z,35.75
2022-12-04T22:53:56.109Z,35.20
2022-12-04T22:56:29.048Z,35.30
2022-12-04T23:01:25.103Z,33.20
2022-12-04T23:03:52.910Z,33.30
2022-12-04T23:06:21.271Z,33.60
2022-12-04T23:08:48.299Z,35.08
2022-12-04T23:11:17.954Z,33.83
2022-12-04T23:13:53.378Z,37.50
2022-12-04T23:16:21.184Z,37.58
2022-12-04T23:18:49.139Z,37.42
2022-12-04T23:21:16.826Z,37.22
2022-12-04T23:23:45.784Z,35.90
2022-12-04T23:26:18.778Z,35.92
2022-12-04T23:28:46.470Z,36.08
2022-12-04T23:31:13.683Z,36.67
2022-12-04T23:33:41.786Z,36.90
2022-12-04T23:36:09.950Z,38.75
2022-12-04T23:38:39.928Z,37.25
2022-12-04T23:41:21.604Z,37.67
2022-12-04T23:43:49.544Z,37.92
2022-12-04T23:46:20.724Z,36.47
2022-12-04T23:48:47.680Z,38.58
2022-12-04T23:51:17.404Z,38.97
2022-12-04T23:53:45.444Z,38.85
2022-12-04T23:56:24.833Z,37.85
2022-12-04T23:58:53.141Z,39.22
